createdAt,value
2023-07-18T00:01:59.962Z,91.59
2023-07-18T00:04:31.183Z,91.26
2023-07-18T00:06:57.777Z,91.78
2023-07-18T00:09:25.744Z,91.53
2023-07-18T00:11:53.544Z,92.06
2023-07-18T00:14:20.194Z,91.72
2023-07-18T00:16:46.922Z,92.00
2023-07-18T00:19:13.643Z,92.16
2023-07-18T00:21:42.042Z,91.93
2023-07-18T00:24:08.804Z,92.17
2023-07-18T00:26:35.753Z,92.60
2023-07-18T00:29:02.548Z,92.76
2023-07-18T00:31:29.249Z,92.51
2023-07-18T00:33:56.054Z,92.79
2023-07-18T00:36:23.022Z,92.62
2023-07-18T00:38:50.360Z,92.82
2023-07-18T00:41:17.354Z,93.29
2023-07-18T00:43:44.178Z,92.83
2023-07-18T00:46:11.454Z,92.99
2023-07-18T00:48:38.226Z,93.00
2023-07-18T00:51:05.716Z,93.11
2023-07-18T00:53:33.426Z,93.25
2023-07-18T00:56:01.655Z,93.04
2023-07-18T00:58:30.009Z,93.05
2023-07-18T01:00:56.646Z,93.02
2023-07-18T01:03:23.609Z,93.37
2023-07-18T01:05:50.328Z,93.02
2023-07-18T01:08:16.931Z,93.26
2023-07-18T01:10:43.728Z,93.53
2023-07-18T01:13:10.939Z,93.54
2023-07-18T01:15:38.678Z,93.30
2023-07-18T01:18:09.319Z,93.32
2023-07-18T01:20:37.578Z,93.29
2023-07-18T01:23:05.455Z,92.97
2023-07-18T01:25:34.758Z,93.68
2023-07-18T01:28:01.597Z,93.40
2023-07-18T01:30:29.173Z,93.48
2023-07-18T01:32:56.241Z,93.66
2023-07-18T01:35:26.998Z,93.77
2023-07-18T01:37:55.338Z,93.43
2023-07-18T01:40:22.855Z,93.91
2023-07-18T01:42:54.029Z,93.81
2023-07-18T01:45:23.273Z,93.78
2023-07-18T01:47:51.040Z,93.70
2023-07-18T01:50:19.197Z,93.90
2023-07-18T01:52:47.575Z,94.13
2023-07-18T01:55:14.786Z,94.00
2023-07-18T01:57:41.665Z,93.81
2023-07-18T02:00:13.669Z,94.21
2023-07-18T02:02:41.653Z,93.96
2023-07-18T02:05:09.454Z,94.25
2023-07-18T02:07:36.612Z,94.20
2023-07-18T02:10:04.617Z,94.24
2023-07-18T02:12:31.350Z,94.39
2023-07-18T02:14:58.051Z,94.26
2023-07-18T02:17:25.813Z,94.00
2023-07-18T02:19:52.455Z,93.88
2023-07-18T02:22:20.570Z,94.09
2023-07-18T02:24:49.280Z,94.18
2023-07-18T02:27:16.113Z,94.19
2023-07-18T02:29:42.790Z,94.10
2023-07-18T02:32:09.701Z,94.46
2023-07-18T02:34:36.379Z,94.32
2023-07-18T02:37:02.989Z,94.41
2023-07-18T02:39:34.099Z,94.74
2023-07-18T02:42:01.091Z,94.80
2023-07-18T02:44:27.944Z,94.55
2023-07-18T02:46:55.705Z,94.51
2023-07-18T02:49:22.397Z,94.72
2023-07-18T02:51:49.145Z,94.57
2023-07-18T02:54:15.929Z,94.70
2023-07-18T02:56:43.634Z,94.82
2023-07-18T02:59:10.351Z,94.79
2023-07-18T03:01:41.191Z,94.67
2023-07-18T03:04:08.018Z,94.65
2023-07-18T03:06:34.656Z,94.83
2023-07-18T03:09:02.842Z,94.75
2023-07-18T03:11:29.507Z,94.81
2023-07-18T03:13:56.919Z,94.67
2023-07-18T03:16:24.176Z,94.78
2023-07-18T03:18:51.024Z,94.75
2023-07-18T03:21:18.972Z,95.05
2023-07-18T03:23:45.973Z,94.92
2023-07-18T03:26:12.971Z,94.68
2023-07-18T03:28:39.611Z,94.91
2023-07-18T03:31:06.736Z,94.91
2023-07-18T03:33:33.540Z,94.87
2023-07-18T03:36:00.187Z,94.94
2023-07-18T03:38:27.233Z,94.92
2023-07-18T03:40:54.290Z,94.86
2023-07-18T03:43:21.016Z,95.11
2023-07-18T03:45:47.731Z,94.67
2023-07-18T03:48:14.524Z,94.96
2023-07-18T03:50:43.674Z,94.96
2023-07-18T03:53:10.713Z,95.07
2023-07-18T03:55:40.619Z,95.06
2023-07-18T03:58:07.300Z,94.87
2023-07-18T04:00:34.072Z,95.17
2023-07-18T04:03:00.977Z,95.02
2023-07-18T04:05:27.965Z,95.04
2023-07-18T04:07:54.746Z,94.97
2023-07-18T04:10:21.527Z,94.72
2023-07-18T04:12:48.733Z,94.88
2023-07-18T04:15:16.260Z,94.67
2023-07-18T04:17:43.439Z,94.97
2023-07-18T04:20:10.483Z,94.82
2023-07-18T04:22:37.187Z,94.72
2023-07-18T04:25:04.135Z,94.93
2023-07-18T04:27:31.007Z,94.68
2023-07-18T04:29:57.865Z,94.64
2023-07-18T04:32:25.765Z,94.27
2023-07-18T04:34:52.628Z,94.38
2023-07-18T04:37:20.027Z,94.07
2023-07-18T04:39:46.838Z,94.29
2023-07-18T04:42:13.556Z,94.00
2023-07-18T04:44:40.349Z,94.21
2023-07-18T04:47:09.803Z,94.03
2023-07-18T04:49:36.937Z,93.63
2023-07-18T04:52:04.363Z,93.45
2023-07-18T04:54:31.276Z,93.22
2023-07-18T04:56:57.978Z,93.05
2023-07-18T04:59:24.702Z,92.82
2023-07-18T05:01:57.738Z,92.18
2023-07-18T05:04:27.068Z,92.17
2023-07-18T05:06:53.865Z,91.40
2023-07-18T05:09:20.613Z,91.12
2023-07-18T05:11:47.821Z,90.80
2023-07-18T05:14:15.567Z,90.33
2023-07-18T05:16:43.316Z,89.68
2023-07-18T05:19:10.027Z,88.79
2023-07-18T05:21:37.008Z,87.51
2023-07-18T05:24:03.807Z,86.48
2023-07-18T05:26:30.515Z,85.42
2023-07-18T05:28:57.264Z,84.52
2023-07-18T05:31:24.481Z,83.77
2023-07-18T05:33:51.605Z,83.53
2023-07-18T05:36:18.291Z,83.52
2023-07-18T05:38:46.520Z,83.41
2023-07-18T05:41:13.459Z,83.79
2023-07-18T05:43:40.456Z,84.24
2023-07-18T05:46:07.192Z,84.71
2023-07-18T05:48:34.085Z,85.02
2023-07-18T05:51:01.823Z,85.43
2023-07-18T05:53:28.544Z,85.20
2023-07-18T05:55:56.208Z,84.77
2023-07-18T05:58:22.879Z,84.32
2023-07-18T06:00:49.749Z,83.73
2023-07-18T06:03:16.652Z,82.79
2023-07-18T06:05:43.518Z,81.95
2023-07-18T06:08:13.026Z,81.67
2023-07-18T06:10:39.765Z,81.83
2023-07-18T06:13:06.491Z,82.13
2023-07-18T06:15:33.218Z,81.97
2023-07-18T06:18:00.820Z,81.58
2023-07-18T06:20:27.677Z,81.41
2023-07-18T06:22:54.539Z,80.87
2023-07-18T06:25:21.433Z,80.66
2023-07-18T06:27:50.652Z,79.96
2023-07-18T06:30:18.336Z,80.10
2023-07-18T06:32:46.062Z,79.80
2023-07-18T06:37:44.242Z,77.52
2023-07-18T06:40:12.862Z,77.40
2023-07-18T06:42:40.394Z,77.29
2023-07-18T06:45:10.144Z,77.70
2023-07-18T06:47:37.199Z,77.79
2023-07-18T06:50:04.069Z,78.31
2023-07-18T06:52:32.588Z,78.19
2023-07-18T06:55:01.540Z,78.26
2023-07-18T06:57:28.383Z,77.84
2023-07-18T06:59:56.053Z,77.43
2023-07-18T07:02:23.319Z,77.07
2023-07-18T07:04:50.540Z,76.96
2023-07-18T07:07:17.778Z,76.54
2023-07-18T07:09:44.714Z,75.95
2023-07-18T07:12:18.912Z,74.98
2023-07-18T07:14:53.541Z,74.11
2023-07-18T07:17:20.858Z,73.71
2023-07-18T07:19:47.858Z,73.03
2023-07-18T07:22:15.821Z,73.18
2023-07-18T07:24:42.877Z,72.08
2023-07-18T07:27:10.549Z,71.99
2023-07-18T07:29:41.281Z,72.35
2023-07-18T07:32:08.616Z,72.73
2023-07-18T07:34:37.234Z,72.91
2023-07-18T07:37:05.231Z,72.82
2023-07-18T07:39:31.949Z,73.53
2023-07-18T07:41:58.881Z,73.22
2023-07-18T07:44:25.683Z,73.30
2023-07-18T07:46:52.554Z,73.47
2023-07-18T07:49:19.481Z,72.32
2023-07-18T07:51:50.400Z,71.46
2023-07-18T07:54:17.146Z,69.59
2023-07-18T07:56:43.989Z,67.99
2023-07-18T07:59:12.222Z,66.56
2023-07-18T08:01:39.567Z,64.26
2023-07-18T08:04:06.626Z,63.43
2023-07-18T08:06:33.345Z,62.27
2023-07-18T08:09:00.641Z,62.66
2023-07-18T08:11:27.326Z,61.94
2023-07-18T08:13:54.683Z,62.05
2023-07-18T08:16:22.288Z,63.76
2023-07-18T08:18:49.127Z,63.42
2023-07-18T08:21:15.870Z,62.97
2023-07-18T08:23:42.622Z,61.91
2023-07-18T08:26:09.307Z,61.69
2023-07-18T08:28:35.940Z,61.15
2023-07-18T08:31:05.834Z,60.91
2023-07-18T08:33:32.835Z,60.70
2023-07-18T08:36:00.946Z,61.43
2023-07-18T08:38:27.723Z,60.83
2023-07-18T08:40:54.368Z,60.84
2023-07-18T08:43:21.660Z,61.76
2023-07-18T08:45:48.807Z,61.67
2023-07-18T08:48:16.224Z,63.67
2023-07-18T08:50:43.231Z,63.32
2023-07-18T08:53:12.461Z,62.35
2023-07-18T08:55:39.364Z,64.63
2023-07-18T08:58:06.599Z,65.48
2023-07-18T09:00:33.329Z,65.32
2023-07-18T09:03:00.032Z,65.74
2023-07-18T09:05:36.967Z,65.62
2023-07-18T09:08:06.026Z,64.55
2023-07-18T09:10:35.072Z,65.47
2023-07-18T09:13:03.467Z,66.36
2023-07-18T09:15:34.026Z,65.67
2023-07-18T09:18:04.086Z,62.92
2023-07-18T09:20:32.184Z,61.66
2023-07-18T09:22:59.779Z,58.57
2023-07-18T09:25:27.879Z,60.73
2023-07-18T09:27:55.811Z,58.45
2023-07-18T09:30:24.436Z,58.25
2023-07-18T09:32:52.592Z,57.04
2023-07-18T09:35:19.436Z,57.77
2023-07-18T09:37:48.609Z,56.00
2023-07-18T09:40:17.194Z,59.15
2023-07-18T09:42:48.129Z,59.06
2023-07-18T09:45:16.565Z,59.79
2023-07-18T09:47:44.956Z,59.81
2023-07-18T09:50:16.117Z,56.66
2023-07-18T09:52:52.550Z,57.54
2023-07-18T09:55:28.345Z,58.41
2023-07-18T09:58:00.599Z,58.17
2023-07-18T10:00:28.085Z,57.10
2023-07-18T10:02:57.736Z,56.42
2023-07-18T10:05:27.899Z,56.89
2023-07-18T10:07:55.399Z,57.65
2023-07-18T10:10:22.263Z,60.39
2023-07-18T10:13:09.266Z,60.48
2023-07-18T10:16:16.364Z,60.48
2023-07-18T10:18:52.880Z,61.38
2023-07-18T10:21:34.124Z,61.94
2023-07-18T10:24:23.086Z,61.87
2023-07-18T10:26:53.067Z,57.98
2023-07-18T10:29:20.192Z,54.58
2023-07-18T10:31:47.300Z,53.91
2023-07-18T10:34:16.455Z,55.46
2023-07-18T10:37:00.854Z,57.34
2023-07-18T10:39:55.709Z,55.28
2023-07-18T10:42:29.894Z,55.21
2023-07-18T10:44:58.888Z,55.75
2023-07-18T10:47:27.574Z,56.93
2023-07-18T10:49:56.722Z,55.69
2023-07-18T10:52:23.833Z,56.62
2023-07-18T10:54:50.537Z,55.87
2023-07-18T10:57:17.783Z,57.34
2023-07-18T10:59:45.830Z,57.80
2023-07-18T11:02:13.491Z,55.72
2023-07-18T11:04:40.266Z,54.22
2023-07-18T11:07:06.997Z,50.61
2023-07-18T11:09:36.226Z,46.38
2023-07-18T11:12:04.412Z,49.24
2023-07-18T11:14:41.273Z,48.63
2023-07-18T11:17:15.276Z,48.70
2023-07-18T11:19:42.044Z,49.25
2023-07-18T11:22:11.555Z,50.08
2023-07-18T11:24:38.445Z,49.45
2023-07-18T11:27:15.940Z,50.54
2023-07-18T11:29:56.451Z,51.18
2023-07-18T11:32:41.483Z,51.59
2023-07-18T11:35:22.412Z,54.69
2023-07-18T11:37:53.757Z,54.15
2023-07-18T11:40:27.210Z,55.62
2023-07-18T11:42:59.254Z,56.38
2023-07-18T11:45:28.494Z,56.90
2023-07-18T11:47:57.991Z,56.57
2023-07-18T11:50:30.462Z,59.33
2023-07-18T11:52:59.698Z,60.14
2023-07-18T11:55:28.483Z,59.56
2023-07-18T11:57:55.479Z,61.34
2023-07-18T12:00:22.463Z,61.75
2023-07-18T12:02:50.013Z,61.74
2023-07-18T12:05:24.944Z,61.08
2023-07-18T12:07:53.127Z,61.06
2023-07-18T12:10:24.091Z,59.59
2023-07-18T12:12:53.021Z,57.34
2023-07-18T12:15:19.716Z,56.55
2023-07-18T12:17:47.616Z,56.98
2023-07-18T12:20:14.936Z,55.72
2023-07-18T12:22:41.689Z,55.84
2023-07-18T12:25:09.274Z,56.23
2023-07-18T12:27:36.076Z,54.57
2023-07-18T12:30:03.248Z,56.28
2023-07-18T12:32:32.109Z,55.44
2023-07-18T12:34:59.254Z,55.91
2023-07-18T12:37:26.103Z,54.12
2023-07-18T12:39:52.933Z,55.35
2023-07-18T12:42:19.750Z,55.03
2023-07-18T12:44:47.450Z,55.87
2023-07-18T12:47:14.712Z,55.22
2023-07-18T12:52:14.023Z,45.19
2023-07-18T12:54:41.744Z,44.36
2023-07-18T12:57:08.728Z,45.15
2023-07-18T12:59:35.481Z,47.66
2023-07-18T13:02:02.614Z,45.73
2023-07-18T13:04:30.129Z,45.06
2023-07-18T13:06:57.116Z,48.83
2023-07-18T13:09:23.831Z,49.24
2023-07-18T13:11:50.908Z,50.56
2023-07-18T13:14:21.443Z,46.73
2023-07-18T13:16:48.714Z,44.94
2023-07-18T13:19:15.710Z,41.83
2023-07-18T13:21:42.578Z,40.30
2023-07-18T13:24:09.707Z,39.01
2023-07-18T13:26:37.303Z,38.39
2023-07-18T13:29:04.914Z,40.85
2023-07-18T13:31:31.619Z,40.35
2023-07-18T13:33:59.291Z,39.44
2023-07-18T13:36:25.863Z,40.68
2023-07-18T13:38:52.630Z,38.99
2023-07-18T13:41:19.255Z,38.51
2023-07-18T13:43:45.906Z,43.59
2023-07-18T13:46:13.646Z,45.50
2023-07-18T13:48:40.652Z,46.71
2023-07-18T13:51:07.604Z,45.15
2023-07-18T13:53:35.378Z,42.99
2023-07-18T13:56:02.795Z,42.57
2023-07-18T13:58:29.526Z,42.30
2023-07-18T14:00:56.653Z,45.83
2023-07-18T14:03:34.456Z,42.83
2023-07-18T14:06:02.583Z,42.48
2023-07-18T14:08:30.855Z,43.62
2023-07-18T14:10:58.091Z,45.21
2023-07-18T14:13:25.077Z,43.65
2023-07-18T14:15:51.999Z,43.13
2023-07-18T14:18:18.884Z,39.97
2023-07-18T14:20:46.215Z,40.52
2023-07-18T14:23:13.136Z,37.08
2023-07-18T14:25:39.919Z,39.39
2023-07-18T14:28:06.627Z,39.47
2023-07-18T14:30:33.606Z,37.99
2023-07-18T14:33:02.296Z,37.78
2023-07-18T14:35:30.610Z,38.00
2023-07-18T14:37:57.452Z,38.79
2023-07-18T14:40:24.296Z,36.92
2023-07-18T14:42:50.979Z,37.22
2023-07-18T14:45:17.712Z,38.24
2023-07-18T14:47:44.544Z,37.92
2023-07-18T14:50:12.368Z,37.87
2023-07-18T14:52:39.054Z,38.29
2023-07-18T14:55:06.086Z,35.67
2023-07-18T14:57:32.854Z,37.15
2023-07-18T15:00:01.494Z,38.72
2023-07-18T15:02:28.251Z,38.94
2023-07-18T15:04:55.016Z,39.85
2023-07-18T15:07:21.887Z,39.53
2023-07-18T15:09:50.074Z,38.44
2023-07-18T15:12:18.700Z,37.07
2023-07-18T15:14:45.526Z,38.01
2023-07-18T15:17:12.403Z,39.21
2023-07-18T15:19:39.498Z,42.42
2023-07-18T15:22:06.281Z,44.58
2023-07-18T15:24:33.010Z,44.54
2023-07-18T15:26:59.921Z,42.37
2023-07-18T15:29:26.687Z,39.04
2023-07-18T15:31:53.369Z,38.11
2023-07-18T15:34:20.134Z,35.86
2023-07-18T15:36:47.376Z,36.79
2023-07-18T15:39:14.299Z,37.60
2023-07-18T15:41:41.216Z,40.10
2023-07-18T15:44:18.486Z,38.48
2023-07-18T15:46:55.242Z,38.28
2023-07-18T15:49:29.287Z,39.53
2023-07-18T15:52:03.385Z,37.75
2023-07-18T15:54:30.697Z,36.72
2023-07-18T15:57:05.256Z,37.29
2023-07-18T15:59:33.328Z,36.01
2023-07-18T16:02:00.899Z,39.14
2023-07-18T16:04:30.151Z,39.27
2023-07-18T16:07:00.491Z,38.03
2023-07-18T16:09:30.878Z,38.22
2023-07-18T16:12:01.170Z,36.28
2023-07-18T16:14:29.416Z,37.62
2023-07-18T16:17:11.188Z,38.47
2023-07-18T16:19:39.991Z,42.24
2023-07-18T16:22:13.248Z,41.55
2023-07-18T16:24:43.761Z,38.98
2023-07-18T16:27:10.580Z,43.63
2023-07-18T16:29:40.985Z,43.65
2023-07-18T16:32:09.245Z,46.84
2023-07-18T16:34:38.310Z,46.64
2023-07-18T16:37:05.798Z,45.22
2023-07-18T16:39:36.605Z,41.79
2023-07-18T16:42:21.992Z,40.18
2023-07-18T16:45:02.390Z,40.71
2023-07-18T16:47:32.318Z,41.53
2023-07-18T16:49:59.939Z,42.99
2023-07-18T16:52:30.654Z,44.00
2023-07-18T16:54:58.129Z,43.48
2023-07-18T16:57:25.775Z,45.65
2023-07-18T17:00:01.386Z,47.30
2023-07-18T17:02:28.512Z,48.82
2023-07-18T17:04:58.665Z,49.67
2023-07-18T17:07:25.771Z,51.91
2023-07-18T17:09:55.693Z,52.07
2023-07-18T17:12:23.433Z,50.70
2023-07-18T17:14:52.902Z,50.74
2023-07-18T17:17:19.754Z,50.98
2023-07-18T17:20:03.188Z,51.96
2023-07-18T17:22:34.193Z,52.41
2023-07-18T17:25:00.931Z,53.25
2023-07-18T17:27:28.951Z,53.44
2023-07-18T17:29:55.845Z,53.74
2023-07-18T17:34:49.422Z,55.05
2023-07-18T17:37:16.943Z,54.93
2023-07-18T17:39:45.518Z,55.59
2023-07-18T17:42:12.540Z,56.67
2023-07-18T17:44:41.675Z,56.31
2023-07-18T17:47:08.420Z,56.22
2023-07-18T17:49:35.534Z,56.21
2023-07-18T17:52:02.328Z,55.88
2023-07-18T17:54:29.848Z,55.92
2023-07-18T17:56:56.669Z,56.43
2023-07-18T17:59:23.570Z,57.24
2023-07-18T18:01:51.382Z,57.05
2023-07-18T18:04:18.486Z,57.64
2023-07-18T18:06:45.598Z,58.21
2023-07-18T18:09:12.438Z,58.36
2023-07-18T18:11:39.253Z,58.29
2023-07-18T18:14:06.331Z,58.06
2023-07-18T18:16:34.967Z,58.50
2023-07-18T18:19:01.649Z,58.46
2023-07-18T18:21:28.492Z,58.18
2023-07-18T18:23:55.169Z,58.77
2023-07-18T18:26:22.313Z,57.75
2023-07-18T18:28:49.036Z,57.77
2023-07-18T18:31:16.343Z,58.43
2023-07-18T18:33:44.271Z,58.17
2023-07-18T18:36:11.316Z,57.63
2023-07-18T18:38:38.164Z,58.41
2023-07-18T18:41:06.156Z,58.31
2023-07-18T18:43:34.492Z,57.28
2023-07-18T18:46:01.494Z,57.37
2023-07-18T18:48:28.407Z,58.36
2023-07-18T18:50:55.244Z,58.50
2023-07-18T18:53:22.491Z,59.07
2023-07-18T18:55:49.356Z,60.01
2023-07-18T18:58:16.178Z,59.91
2023-07-18T19:00:43.003Z,60.18
2023-07-18T19:03:09.845Z,59.59
2023-07-18T19:05:37.987Z,60.30
2023-07-18T19:08:04.780Z,60.81
2023-07-18T19:10:31.628Z,60.01
2023-07-18T19:13:00.647Z,59.93
2023-07-18T19:15:28.297Z,60.52
2023-07-18T19:17:55.119Z,60.55
2023-07-18T19:20:22.486Z,61.26
2023-07-18T19:22:49.271Z,62.16
2023-07-18T19:25:18.739Z,62.02
2023-07-18T19:27:47.627Z,61.80
2023-07-18T19:30:14.848Z,62.07
2023-07-18T19:32:41.793Z,62.85
2023-07-18T19:35:09.753Z,63.36
2023-07-18T19:37:36.456Z,63.56
2023-07-18T19:40:03.723Z,64.39
2023-07-18T19:42:32.580Z,63.46
2023-07-18T19:45:00.306Z,64.28
2023-07-18T19:47:28.086Z,64.48
2023-07-18T19:49:56.448Z,64.76
2023-07-18T19:52:24.672Z,64.74
2023-07-18T19:54:52.435Z,64.39
2023-07-18T19:57:19.098Z,64.62
2023-07-18T19:59:45.878Z,64.64
2023-07-18T20:02:12.656Z,64.85
2023-07-18T20:04:39.510Z,64.90
2023-07-18T20:07:06.392Z,64.38
2023-07-18T20:09:34.438Z,64.61
2023-07-18T20:12:01.145Z,64.75
2023-07-18T20:14:27.845Z,64.55
2023-07-18T20:16:54.533Z,64.50
2023-07-18T20:19:21.579Z,64.90
2023-07-18T20:21:48.259Z,64.26
2023-07-18T20:24:15.044Z,64.87
2023-07-18T20:26:43.540Z,64.89
2023-07-18T20:29:10.455Z,65.44
2023-07-18T20:31:37.340Z,65.08
2023-07-18T20:34:04.049Z,64.90
2023-07-18T20:36:30.655Z,65.08
2023-07-18T20:38:57.296Z,65.81
2023-07-18T20:41:24.131Z,65.94
2023-07-18T20:43:52.061Z,66.51
2023-07-18T20:46:18.969Z,65.03
2023-07-18T20:48:46.944Z,64.83
2023-07-18T20:51:13.665Z,65.22
2023-07-18T20:53:40.469Z,65.19
2023-07-18T20:56:07.282Z,65.75
2023-07-18T20:58:34.343Z,66.56
2023-07-18T21:01:01.752Z,66.83
2023-07-18T21:03:29.078Z,66.90
2023-07-18T21:05:59.139Z,67.43
2023-07-18T21:08:25.884Z,67.40
2023-07-18T21:10:52.605Z,67.45
2023-07-18T21:13:19.240Z,67.33
2023-07-18T21:15:45.910Z,67.82
2023-07-18T21:18:12.760Z,67.87
2023-07-18T21:20:39.462Z,67.71
2023-07-18T21:23:06.526Z,67.19
2023-07-18T21:25:33.379Z,67.22
2023-07-18T21:28:00.213Z,66.89
2023-07-18T21:30:26.940Z,65.72
2023-07-18T21:32:53.789Z,65.07
2023-07-18T21:35:23.665Z,64.93
2023-07-18T21:37:51.257Z,65.13
2023-07-18T21:40:19.404Z,66.68
2023-07-18T21:42:48.300Z,67.22
2023-07-18T21:45:15.980Z,68.54
2023-07-18T21:47:43.302Z,69.16
2023-07-18T21:50:10.160Z,69.59
2023-07-18T21:52:36.900Z,69.13
2023-07-18T21:55:03.987Z,69.97
2023-07-18T21:57:30.797Z,69.63
2023-07-18T21:59:58.099Z,70.26
2023-07-18T22:02:37.723Z,70.07
2023-07-18T22:05:05.029Z,71.21
2023-07-18T22:07:32.005Z,71.29
2023-07-18T22:10:00.540Z,71.16
2023-07-18T22:12:27.331Z,71.03
2023-07-18T22:14:54.099Z,70.97
2023-07-18T22:17:21.271Z,71.52
2023-07-18T22:19:48.297Z,71.78
2023-07-18T22:22:15.934Z,71.54
2023-07-18T22:24:42.676Z,72.46
2023-07-18T22:27:10.592Z,72.24
2023-07-18T22:29:37.336Z,73.05
2023-07-18T22:32:04.550Z,73.39
2023-07-18T22:34:32.467Z,72.38
2023-07-18T22:36:59.130Z,72.40
2023-07-18T22:39:35.698Z,72.78
2023-07-18T22:42:23.828Z,72.86
2023-07-18T22:44:51.372Z,72.99
2023-07-18T22:47:18.923Z,72.89
2023-07-18T22:49:46.551Z,72.92
2023-07-18T22:52:19.394Z,73.34
2023-07-18T22:54:47.805Z,72.89
2023-07-18T22:57:15.291Z,73.47
2023-07-18T22:59:42.096Z,74.68
2023-07-18T23:02:08.956Z,74.78
2023-07-18T23:04:36.387Z,74.31
2023-07-18T23:07:04.018Z,73.88
2023-07-18T23:09:31.932Z,73.82
2023-07-18T23:11:58.816Z,73.70
2023-07-18T23:14:25.786Z,74.79
2023-07-18T23:16:52.473Z,75.32
2023-07-18T23:19:19.180Z,75.06
2023-07-18T23:21:46.880Z,75.43
2023-07-18T23:24:13.952Z,75.36
2023-07-18T23:26:40.765Z,75.89
2023-07-18T23:29:07.641Z,75.07
2023-07-18T23:31:34.320Z,76.06
2023-07-18T23:34:00.966Z,76.49
2023-07-18T23:36:27.626Z,77.17
2023-07-18T23:38:54.397Z,76.99
2023-07-18T23:41:21.228Z,76.97
2023-07-18T23:43:48.182Z,77.20
2023-07-18T23:46:14.970Z,76.84
2023-07-18T23:48:41.880Z,77.60
2023-07-18T23:51:08.875Z,76.99
2023-07-18T23:53:35.631Z,76.94
2023-07-18T23:56:02.624Z,76.43
2023-07-18T23:58:29.679Z,76.69
